»·PEaware :: N1159Z KBUR-KOXR

N1159Z :: KBUR-KOXR

FLIGHT INFORMATION

Flight Status: Arrived
Operator: Privately registered:
United States
More flights under this callsign
Pilot: Will H. (27002)
Aircraft: CESSNA 172 SKYHAWK
(C172)
More flights by this aircraft type
Origin: KBUR Bob Hope-Burbank
United States
Destination: KOXR Oxnard
United States
More flights between these airports :: More routes between these airports
Route: VNY3 FIM
File this flight plan on PilotEdge
Remarks:
Altitude:
(Current/Filed)
6,000ft
Speed:
(Current/Filed)
105kts
Departed: 10-Feb-21 07:25 PM
Arrived: 10-Feb-21 07:58 PM
Distance/Time
Traveled:
42nm/0:33
Distance/Time
To Go:
Arrived

Flight Plot

Page will automatically refresh every two minutes.

Flight plan parsing failed; only flown route is shown


Map Options




Map Legend


Flown Route
Filed Route
Departure Airport
Arrival Airport
Navaid (VOR, NDB)
Fix

Horizontal Profiles

Position Reports

Time Latitude Longitude Heading Altitude Ground
Speed
10-Feb-21 18:58 34.200118 -118.359399 71 722ft 0kts
10-Feb-21 18:59 34.200118 -118.359399 71 722ft 0kts
10-Feb-21 19:00 34.200118 -118.359399 71 722ft 0kts
10-Feb-21 19:01 34.200118 -118.359399 71 722ft 0kts
10-Feb-21 19:02 34.200118 -118.359399 71 722ft 0kts
10-Feb-21 19:03 34.200118 -118.359399 71 722ft 0kts
10-Feb-21 19:04 34.200118 -118.359399 71 722ft 0kts
10-Feb-21 19:05 34.200118 -118.359399 71 722ft 0kts
10-Feb-21 19:06 34.200118 -118.359399 71 722ft 0kts
10-Feb-21 19:07 34.200118 -118.359399 71 722ft 0kts
10-Feb-21 19:08 34.200118 -118.359399 71 722ft 0kts
10-Feb-21 19:09 34.200118 -118.359399 71 722ft 0kts
10-Feb-21 19:10 34.200118 -118.359399 71 722ft 0kts
10-Feb-21 19:11 34.200118 -118.359399 71 722ft 0kts
10-Feb-21 19:12 34.200118 -118.359399 71 722ft 0kts
10-Feb-21 19:13 34.200118 -118.359399 71 722ft 0kts
10-Feb-21 19:14 34.200118 -118.359399 71 722ft 0kts
10-Feb-21 19:15 34.200118 -118.359399 71 722ft 0kts
10-Feb-21 19:16 34.199802 -118.358185 4 718ft 8kts
10-Feb-21 19:17 34.202857 -118.359010 347 732ft 13kts
10-Feb-21 19:18 34.206350 -118.359959 348 744ft 12kts
10-Feb-21 19:19 34.209986 -118.360971 347 763ft 12kts
10-Feb-21 19:20 34.211407 -118.361270 30 767ft 0kts
10-Feb-21 19:21 34.211407 -118.361270 30 767ft 0kts
10-Feb-21 19:22 34.211448 -118.361247 22 767ft 0kts
10-Feb-21 19:23 34.211244 -118.360164 165 765ft 8kts
10-Feb-21 19:24 34.195392 -118.359459 221 1377ft 75kts
10-Feb-21 19:25 34.181456 -118.378413 226 2270ft 76kts
10-Feb-21 19:26 34.166607 -118.395408 217 3072ft 79kts
10-Feb-21 19:27 34.171524 -118.415550 299 3864ft 76kts
10-Feb-21 19:28 34.186692 -118.438198 308 4392ft 94kts
10-Feb-21 19:29 34.205042 -118.465524 309 4903ft 113kts
10-Feb-21 19:30 34.220644 -118.499482 279 5447ft 118kts
10-Feb-21 19:31 34.222991 -118.538791 274 5949ft 125kts
10-Feb-21 19:32 34.223782 -118.582043 273 5968ft 131kts
10-Feb-21 19:33 34.223917 -118.623648 272 5968ft 120kts
10-Feb-21 19:34 34.223677 -118.664083 272 5970ft 120kts
10-Feb-21 19:35 34.223667 -118.702676 270 5970ft 108kts
10-Feb-21 19:36 34.232476 -118.734170 319 5973ft 110kts
10-Feb-21 19:38 34.254667 -118.759191 315 5970ft 108kts
10-Feb-21 19:39 34.248011 -118.789005 234 5971ft 103kts
10-Feb-21 19:40 34.224087 -118.805917 194 5979ft 105kts
10-Feb-21 19:41 34.194846 -118.810754 194 5976ft 106kts
10-Feb-21 19:42 34.165608 -118.815549 194 5976ft 106kts
10-Feb-21 19:43 34.136437 -118.820308 194 5977ft 105kts
10-Feb-21 19:44 34.107281 -118.825039 194 5977ft 105kts
10-Feb-21 19:45 34.077972 -118.830165 191 5981ft 107kts
10-Feb-21 19:46 34.053121 -118.844217 258 5930ft 108kts
10-Feb-21 19:47 34.066533 -118.877018 302 5320ft 109kts
10-Feb-21 19:48 34.084232 -118.906899 302 4718ft 109kts
10-Feb-21 19:49 34.102136 -118.936821 302 4135ft 109kts
10-Feb-21 19:50 34.120851 -118.965143 308 3698ft 108kts
10-Feb-21 19:50 34.138216 -118.986337 312 3412ft 106kts
10-Feb-21 19:52 34.159733 -119.018991 304 2977ft 105kts
10-Feb-21 19:53 34.177847 -119.051900 302 2552ft 131kts
10-Feb-21 19:53 34.194281 -119.082837 296 2005ft 135kts
10-Feb-21 19:55 34.200516 -119.128629 268 1277ft 83kts
10-Feb-21 19:56 34.200489 -119.157555 269 740ft 86kts
10-Feb-21 19:56 34.200598 -119.181734 270 355ft 84kts
10-Feb-21 19:57 34.200774 -119.204499 276 40ft 40kts
10-Feb-21 19:58 34.200028 -119.207154 167 37ft 0kts
10-Feb-21 19:59 34.199375 -119.203060 120 40ft 18kts

Navigation Log

Ident Type
Flight plan parsing failed, navigation log unavailable